Time;durP1;ratioP1;P1;durP2;ratioP2;P2;SDS_P1;SDS_P2;PMS_P1;PMS_P2;Temp;Humidity;BMP_temperature;BMP_pressure;BME280_temperature;BME280_humidity;BME280_pressure;Samples;Min_cycle;Max_cycle;Signal;HPM_P1;HPM_P2
2021/12/18 00:00:19;;;;;;;25.53;23.03;;;7.60;99.90;;;;;;10501367;28;20197;-78
2021/12/18 00:05:21;;;;;;;23.30;21.10;;;7.60;99.90;;;;;;10496594;28;20282;-78
2021/12/18 00:10:57;;;;;;;24.00;21.70;;;7.60;99.90;;;;;;10501573;28;20201;-78
2021/12/18 00:16:00;;;;;;;22.80;20.50;;;7.50;99.90;;;;;;10492813;28;20228;-77
2021/12/18 00:21:03;;;;;;;23.27;20.97;;;7.50;99.90;;;;;;10511791;28;20204;-77
2021/12/18 00:27:01;;;;;;;;;;;;;;;;;;;;;
2021/12/18 00:32:25;;;;;;;24.13;21.73;;;7.50;99.90;;;;;;10523836;28;20274;-78
2021/12/18 00:37:57;;;;;;;22.87;20.67;;;7.40;99.90;;;;;;10519883;28;20215;-79
2021/12/18 00:43:02;;;;;;;24.43;22.03;;;7.40;99.90;;;;;;10519573;28;20283;-78
2021/12/18 00:48:05;;;;;;;22.40;20.40;;;7.40;99.90;;;;;;10488734;28;20220;-78
2021/12/18 00:53:07;;;;;;;23.50;21.10;;;7.30;99.90;;;;;;10518289;28;20703;-79
2021/12/18 00:58:10;;;;;;;22.47;20.30;;;7.30;99.90;;;;;;10503159;28;20230;-76
2021/12/18 01:03:18;;;;;;;24.93;22.33;;;7.30;99.90;;;;;;10511728;28;20188;-77
2021/12/18 01:08:20;;;;;;;26.10;23.60;;;7.30;99.90;;;;;;10521935;28;20205;-77
2021/12/18 01:13:27;;;;;;;24.40;22.10;;;7.20;99.90;;;;;;10530454;28;20279;-79
2021/12/18 01:23:54;;;;;;;23.83;21.50;;;7.30;99.90;;;;;;10509763;28;20223;-79
2021/12/18 01:28:56;;;;;;;23.77;21.37;;;7.30;99.90;;;;;;10520040;28;20192;-79
2021/12/18 01:33:59;;;;;;;23.10;21.00;;;7.30;99.90;;;;;;10513938;28;20220;-80
2021/12/18 01:39:03;;;;;;;25.27;22.83;;;7.30;99.90;;;;;;10519060;28;20663;-80
2021/12/18 01:44:47;;;;;;;24.40;22.10;;;7.30;99.90;;;;;;10531493;28;20784;-81
2021/12/18 01:55:11;;;;;;;23.87;21.57;;;7.30;99.90;;;;;;10516912;28;20277;-80
2021/12/18 02:00:17;;;;;;;25.53;23.03;;;7.30;99.90;;;;;;10528040;28;20301;-79
2021/12/18 02:05:21;;;;;;;25.57;23.07;;;7.30;99.90;;;;;;10521217;28;20215;-81
2021/12/18 02:10:26;;;;;;;26.10;23.70;;;7.30;99.90;;;;;;10530405;28;20216;-80
2021/12/18 02:20:50;;;;;;;26.90;24.20;;;7.00;99.90;;;;;;10532167;28;20611;-81
2021/12/18 02:25:53;;;;;;;23.00;20.80;;;7.00;99.90;;;;;;10512145;28;20304;-80
2021/12/18 02:30:57;;;;;;;24.10;21.90;;;7.00;99.90;;;;;;10505751;28;20197;-78
2021/12/18 02:36:04;;;;;;;25.37;23.03;;;7.00;99.90;;;;;;10459745;28;20650;-79
2021/12/18 02:41:12;;;;;;;26.30;23.80;;;6.90;99.90;;;;;;10495334;28;20296;-80
2021/12/18 02:46:20;;;;;;;25.10;22.70;;;6.80;99.90;;;;;;10530652;28;20294;-80
2021/12/18 02:51:24;;;;;;;23.93;21.50;;;6.80;99.90;;;;;;10519425;28;20565;-78
2021/12/18 02:56:26;;;;;;;24.43;22.03;;;6.70;99.90;;;;;;10509273;28;20227;-80
2021/12/18 03:01:28;;;;;;;22.80;20.50;;;6.80;99.90;;;;;;10530311;28;20204;-81
2021/12/18 03:06:36;;;;;;;25.83;23.33;;;6.80;99.90;;;;;;10528372;28;20222;-78
2021/12/18 03:22:53;;;;;;;24.30;22.00;;;6.80;99.90;;;;;;10522835;28;20203;-78
2021/12/18 03:27:58;;;;;;;25.27;22.77;;;6.80;99.90;;;;;;10525068;28;20303;-78
2021/12/18 03:33:03;;;;;;;24.47;21.97;;;6.90;99.90;;;;;;10516061;28;20242;-77
2021/12/18 03:38:09;;;;;;;26.27;23.67;;;6.90;99.90;;;;;;10501021;28;20220;-79
2021/12/18 03:43:11;;;;;;;25.83;23.23;;;6.90;99.90;;;;;;10503671;28;20242;-78
2021/12/18 03:48:13;;;;;;;24.80;22.33;;;6.90;99.90;;;;;;10504221;28;20204;-77
2021/12/18 03:53:17;;;;;;;24.93;22.30;;;6.90;99.90;;;;;;10505432;28;20204;-79
2021/12/18 03:58:19;;;;;;;24.90;22.40;;;6.90;99.90;;;;;;10502963;28;20226;-78
2021/12/18 04:03:21;;;;;;;24.77;22.23;;;7.00;99.90;;;;;;10500591;28;20197;-79
2021/12/18 04:08:24;;;;;;;24.27;21.80;;;7.00;99.90;;;;;;10504847;28;20682;-78
2021/12/18 04:13:26;;;;;;;22.40;20.00;;;7.00;99.90;;;;;;10503223;28;20195;-78
2021/12/18 04:18:28;;;;;;;21.77;19.47;;;6.90;99.90;;;;;;10501101;28;20224;-79
2021/12/18 04:23:32;;;;;;;22.00;19.70;;;6.90;99.90;;;;;;10502115;28;20197;-77
2021/12/18 04:28:34;;;;;;;23.67;21.17;;;6.80;99.90;;;;;;10500393;28;20558;-78
2021/12/18 04:33:36;;;;;;;22.33;20.03;;;6.80;99.90;;;;;;10499974;28;20192;-78
2021/12/18 04:38:40;;;;;;;23.90;21.30;;;6.80;99.90;;;;;;10463425;28;20221;-79
2021/12/18 04:43:42;;;;;;;22.70;19.67;;;6.70;99.90;;;;;;10442088;28;20296;-78
2021/12/18 04:48:44;;;;;;;22.53;20.03;;;6.60;99.90;;;;;;10459112;28;20205;-78
2021/12/18 04:53:47;;;;;;;21.40;19.20;;;6.50;99.90;;;;;;10459588;28;20193;-78
2021/12/18 04:58:51;;;;;;;22.30;19.83;;;6.40;99.90;;;;;;10459452;28;20315;-77
2021/12/18 05:03:53;;;;;;;21.00;18.90;;;6.30;99.90;;;;;;10459199;28;20274;-78
2021/12/18 05:08:57;;;;;;;21.37;19.17;;;6.20;99.90;;;;;;10456995;28;20197;-79
2021/12/18 05:13:59;;;;;;;22.80;20.40;;;6.10;99.90;;;;;;10458646;28;20709;-78
2021/12/18 05:19:01;;;;;;;22.17;19.50;;;6.10;99.90;;;;;;10456177;28;20244;-78
2021/12/18 05:24:05;;;;;;;21.40;19.10;;;6.00;99.90;;;;;;10456443;28;20638;-79
2021/12/18 05:29:07;;;;;;;20.63;18.43;;;6.10;99.90;;;;;;10458236;28;20186;-78
2021/12/18 05:34:10;;;;;;;20.23;18.13;;;6.10;99.90;;;;;;10462586;28;20193;-78
2021/12/18 05:39:13;;;;;;;20.53;18.13;;;6.20;99.90;;;;;;10498123;28;20691;-79
2021/12/18 05:44:15;;;;;;;22.90;20.50;;;6.10;99.90;;;;;;10496015;28;20703;-77
2021/12/18 05:49:18;;;;;;;19.90;17.90;;;6.10;99.90;;;;;;10499633;28;20196;-79
2021/12/18 05:54:22;;;;;;;21.23;19.03;;;6.10;99.90;;;;;;10518888;23;20283;-78
2021/12/18 05:59:24;;;;;;;21.30;19.17;;;6.10;99.90;;;;;;10477069;28;20188;-80
2021/12/18 06:04:26;;;;;;;21.47;18.73;;;6.10;99.90;;;;;;10497789;28;20209;-79
2021/12/18 06:09:29;;;;;;;21.13;18.83;;;6.10;99.90;;;;;;10495361;28;20204;-81
2021/12/18 06:14:31;;;;;;;20.07;17.80;;;6.20;99.90;;;;;;10496422;28;20220;-80
2021/12/18 06:19:34;;;;;;;22.20;19.73;;;6.10;99.90;;;;;;10499990;28;20235;-79
2021/12/18 06:24:37;;;;;;;19.10;17.10;;;6.10;99.90;;;;;;10479349;28;20221;-79
2021/12/18 06:29:42;;;;;;;20.00;17.90;;;6.10;99.90;;;;;;10484290;28;20293;-81
2021/12/18 06:34:46;;;;;;;18.77;16.63;;;6.10;99.90;;;;;;10503367;28;20216;-81
2021/12/18 06:39:50;;;;;;;18.33;15.60;;;6.10;99.90;;;;;;10502915;28;20254;-81
2021/12/18 06:44:52;;;;;;;16.00;14.37;;;6.10;99.90;;;;;;10500291;28;20706;-81
2021/12/18 06:49:54;;;;;;;15.80;14.10;;;6.00;99.90;;;;;;10501904;28;20207;-80
2021/12/18 06:54:57;;;;;;;15.50;13.97;;;5.80;99.90;;;;;;10501838;28;20224;-84
2021/12/18 06:59:59;;;;;;;16.30;14.60;;;5.90;99.90;;;;;;10492513;28;20279;-85
2021/12/18 07:05:02;;;;;;;15.50;13.90;;;5.90;99.90;;;;;;10506628;28;20580;-80
2021/12/18 07:10:07;;;;;;;14.90;13.30;;;5.90;99.90;;;;;;10499811;28;20199;-82
2021/12/18 07:15:11;;;;;;;17.13;15.13;;;6.00;99.90;;;;;;10499660;28;20343;-82
2021/12/18 07:20:14;;;;;;;15.23;13.67;;;6.10;99.90;;;;;;10500337;28;20193;-83
2021/12/18 07:25:17;;;;;;;16.37;13.90;;;6.20;99.90;;;;;;10512979;28;20240;-82
2021/12/18 07:30:19;;;;;;;14.57;13.07;;;6.30;99.90;;;;;;10482639;28;20197;-81
2021/12/18 07:35:22;;;;;;;16.43;14.73;;;6.40;99.90;;;;;;10481028;28;20220;-82
2021/12/18 07:40:25;;;;;;;15.67;13.87;;;6.40;99.90;;;;;;10496193;28;20691;-82
2021/12/18 07:45:27;;;;;;;16.40;14.70;;;6.40;99.90;;;;;;10498258;28;20210;-81
2021/12/18 07:50:29;;;;;;;17.03;15.27;;;6.40;99.90;;;;;;10483160;28;20679;-82
2021/12/18 07:55:33;;;;;;;17.57;15.40;;;6.40;99.90;;;;;;10498472;28;20224;-82
2021/12/18 08:00:35;;;;;;;18.13;14.93;;;6.40;99.90;;;;;;10499309;28;20678;-83
2021/12/18 08:05:37;;;;;;;17.73;14.60;;;6.50;99.90;;;;;;10499782;28;20446;-83
2021/12/18 08:10:41;;;;;;;15.37;13.70;;;6.60;99.90;;;;;;10500067;28;20193;-82
2021/12/18 08:15:43;;;;;;;18.30;14.80;;;6.70;99.90;;;;;;10499373;28;20239;-82
2021/12/18 08:20:45;;;;;;;16.57;14.53;;;6.70;99.90;;;;;;10497974;28;20197;-82
2021/12/18 08:25:49;;;;;;;15.50;13.83;;;6.70;99.90;;;;;;10497305;28;20228;-82
2021/12/18 08:30:51;;;;;;;17.60;15.43;;;6.70;99.90;;;;;;10497030;28;20189;-82
2021/12/18 08:35:53;;;;;;;16.83;15.07;;;6.80;99.90;;;;;;10497415;28;20311;-82
2021/12/18 08:40:57;;;;;;;16.67;14.87;;;6.80;99.90;;;;;;10489588;28;20215;-82
2021/12/18 08:45:59;;;;;;;18.83;16.13;;;6.90;99.90;;;;;;10496532;28;20222;-82
2021/12/18 08:51:01;;;;;;;18.20;15.70;;;6.80;99.90;;;;;;10496906;28;20663;-82
2021/12/18 08:56:05;;;;;;;18.83;16.20;;;6.80;99.90;;;;;;10477339;28;20248;-82
2021/12/18 09:01:07;;;;;;;18.90;16.47;;;6.90;99.90;;;;;;10498502;28;20224;-82
2021/12/18 09:06:09;;;;;;;18.10;14.60;;;6.80;99.90;;;;;;10478849;28;20227;-83
2021/12/18 09:11:13;;;;;;;17.30;15.43;;;6.80;99.90;;;;;;10496302;28;20203;-82
2021/12/18 09:16:15;;;;;;;21.40;16.20;;;6.80;99.90;;;;;;10495560;28;20216;-82
2021/12/18 09:21:21;;;;;;;19.03;16.90;;;6.80;99.90;;;;;;10496376;28;20650;-82
2021/12/18 09:26:24;;;;;;;16.90;15.13;;;6.90;99.90;;;;;;10493325;28;20212;-82
2021/12/18 09:31:27;;;;;;;18.13;16.23;;;6.90;99.90;;;;;;10494534;28;20598;-81
2021/12/18 09:36:29;;;;;;;18.10;16.20;;;7.00;99.90;;;;;;10494953;28;20691;-81
2021/12/18 09:41:34;;;;;;;17.40;15.27;;;7.00;99.90;;;;;;10478240;28;20199;-81
2021/12/18 09:46:36;;;;;;;17.53;15.73;;;7.00;99.90;;;;;;10497333;28;20214;-81
2021/12/18 09:51:38;;;;;;;18.07;16.03;;;7.10;99.90;;;;;;10498493;28;20202;-81
2021/12/18 09:56:42;;;;;;;16.80;15.00;;;7.10;99.90;;;;;;10487696;28;20243;-82
2021/12/18 10:01:45;;;;;;;15.80;14.17;;;7.10;99.90;;;;;;10493149;28;20219;-82
2021/12/18 10:06:47;;;;;;;15.30;13.70;;;7.00;99.90;;;;;;10515142;28;20200;-83
2021/12/18 10:11:53;;;;;;;16.17;14.47;;;6.90;99.90;;;;;;10497344;28;20204;-82
2021/12/18 10:16:55;;;;;;;18.00;15.43;;;6.90;99.90;;;;;;10513536;28;20292;-82
2021/12/18 10:22:00;;;;;;;17.40;15.60;;;6.80;99.90;;;;;;10501659;28;20287;-81
2021/12/18 10:27:17;;;;;;;15.67;14.07;;;6.70;99.90;;;;;;10509070;28;20209;-82
2021/12/18 10:32:21;;;;;;;16.87;14.30;;;6.70;99.90;;;;;;10506616;28;20613;-81
2021/12/18 10:37:25;;;;;;;16.40;14.20;;;6.80;99.90;;;;;;10507713;28;20228;-81
2021/12/18 10:42:30;;;;;;;15.07;13.53;;;6.80;99.90;;;;;;10508416;28;20193;-81
2021/12/18 10:47:47;;;;;;;14.17;12.67;;;6.80;99.90;;;;;;10491608;28;20221;-82
2021/12/18 10:52:54;;;;;;;14.80;13.30;;;6.80;99.90;;;;;;10508725;28;20354;-80
2021/12/18 10:57:58;;;;;;;14.70;12.73;;;6.80;99.90;;;;;;10509621;28;20295;-81
2021/12/18 11:03:17;;;;;;;15.30;13.70;;;6.80;99.90;;;;;;10510518;28;20874;-81
2021/12/18 11:08:19;;;;;;;15.93;13.17;;;6.90;99.90;;;;;;10510713;28;20204;-82
2021/12/18 11:13:45;;;;;;;14.80;13.30;;;6.90;99.90;;;;;;10513639;28;20192;-82
2021/12/18 11:18:48;;;;;;;16.70;14.97;;;7.00;99.90;;;;;;10495942;28;20226;-80
2021/12/18 11:23:55;;;;;;;14.83;13.23;;;6.90;99.90;;;;;;10511934;28;20728;-81
2021/12/18 11:29:02;;;;;;;15.70;13.83;;;6.80;99.90;;;;;;10513938;28;20676;-82
2021/12/18 11:34:06;;;;;;;15.97;14.27;;;6.80;99.90;;;;;;10518650;28;20215;-82
2021/12/18 11:39:10;;;;;;;14.27;12.77;;;6.90;99.90;;;;;;10508022;28;20223;-81
2021/12/18 11:44:26;;;;;;;15.00;12.77;;;6.90;99.90;;;;;;10503678;28;20193;-81
2021/12/18 11:49:43;;;;;;;14.30;12.80;;;7.00;99.90;;;;;;10506262;28;20198;-82
2021/12/18 11:54:49;;;;;;;14.33;12.27;;;6.90;99.90;;;;;;10509924;22;20592;-79
2021/12/18 11:59:53;;;;;;;14.03;12.53;;;6.80;99.90;;;;;;10511007;28;20651;-79
2021/12/18 12:04:59;;;;;;;16.40;13.50;;;6.90;99.90;;;;;;10510084;28;20235;-79
2021/12/18 12:10:21;;;;;;;14.50;13.00;;;6.80;99.90;;;;;;10510217;28;20184;-79
2021/12/18 12:15:26;;;;;;;14.40;12.87;;;6.80;99.90;;;;;;10509410;28;20299;-79
2021/12/18 12:20:38;;;;;;;13.80;12.40;;;6.90;99.90;;;;;;10509034;28;20216;-79
2021/12/18 12:25:46;;;;;;;12.80;11.50;;;7.00;99.90;;;;;;10506739;28;20232;-79
2021/12/18 12:31:03;;;;;;;15.20;13.70;;;7.10;99.90;;;;;;10508261;28;20192;-79
2021/12/18 12:36:09;;;;;;;14.20;12.80;;;7.10;99.90;;;;;;10496220;28;20216;-79
2021/12/18 12:41:40;;;;;;;14.73;13.23;;;7.10;99.90;;;;;;10508340;28;20566;-79
2021/12/18 12:46:45;;;;;;;16.47;14.77;;;7.10;99.90;;;;;;10504237;28;20299;-79
2021/12/18 12:52:10;;;;;;;14.70;13.20;;;7.20;99.90;;;;;;10506534;28;20216;-79
2021/12/18 12:57:49;;;;;;;15.70;14.00;;;7.30;99.90;;;;;;10505024;28;20226;-79
2021/12/18 13:02:55;;;;;;;15.37;13.77;;;7.30;99.90;;;;;;10505676;28;20196;-78
2021/12/18 13:07:59;;;;;;;17.33;13.70;;;7.30;99.90;;;;;;10503655;28;20705;-79
2021/12/18 13:13:05;;;;;;;15.87;14.17;;;7.40;99.90;;;;;;10486555;28;20196;-80
2021/12/18 13:18:11;;;;;;;16.90;15.10;;;7.50;99.90;;;;;;10502016;28;20224;-80
2021/12/18 13:23:17;;;;;;;19.00;16.47;;;7.60;99.90;;;;;;10505326;28;20196;-80
2021/12/18 13:28:20;;;;;;;16.03;14.30;;;7.60;99.90;;;;;;10501773;28;20208;-79
2021/12/18 13:33:28;;;;;;;17.00;15.10;;;7.50;99.90;;;;;;10502124;28;20683;-77
2021/12/18 13:38:35;;;;;;;15.30;13.70;;;7.50;99.90;;;;;;10503931;28;20220;-78
2021/12/18 13:43:38;;;;;;;16.10;14.50;;;7.40;99.90;;;;;;10504142;28;20232;-80
2021/12/18 13:48:45;;;;;;;17.00;13.43;;;7.40;99.90;;;;;;10500798;28;20215;-77
2021/12/18 13:53:52;;;;;;;15.33;13.73;;;7.30;99.90;;;;;;10501076;28;20276;-78
2021/12/18 13:58:54;;;;;;;17.00;15.23;;;7.30;99.90;;;;;;10500036;28;20220;-79
2021/12/18 14:04:01;;;;;;;16.50;14.70;;;7.40;99.90;;;;;;10501851;28;20188;-79
2021/12/18 14:09:07;;;;;;;14.73;13.20;;;7.40;99.90;;;;;;10500342;28;20362;-76
2021/12/18 14:14:14;;;;;;;15.80;14.20;;;7.40;99.90;;;;;;10496577;28;20200;-78
2021/12/18 14:19:26;;;;;;;16.73;14.97;;;7.40;99.90;;;;;;10499373;28;20216;-79
2021/12/18 14:24:28;;;;;;;17.07;15.00;;;7.40;99.90;;;;;;10499504;28;20207;-79
2021/12/18 14:29:32;;;;;;;18.30;16.17;;;7.40;99.90;;;;;;10497946;28;20296;-79
2021/12/18 14:34:37;;;;;;;16.37;14.77;;;7.40;99.90;;;;;;10498112;28;20283;-79
2021/12/18 14:39:54;;;;;;;17.30;14.50;;;7.30;99.90;;;;;;10499003;28;20255;-79
2021/12/18 14:44:59;;;;;;;14.83;13.23;;;7.30;99.90;;;;;;10501999;28;20212;-78
2021/12/18 14:50:16;;;;;;;15.77;13.73;;;7.20;99.90;;;;;;10501782;28;20291;-77
2021/12/18 14:55:21;;;;;;;16.73;15.00;;;7.20;99.90;;;;;;10503103;28;20224;-78
2021/12/18 15:00:25;;;;;;;16.83;14.87;;;7.10;99.90;;;;;;10501331;28;20251;-77
2021/12/18 15:05:41;;;;;;;17.00;15.23;;;7.10;99.90;;;;;;10503405;28;20215;-77
2021/12/18 15:10:51;;;;;;;14.50;13.10;;;7.10;99.90;;;;;;10501249;28;20192;-77
2021/12/18 15:16:12;;;;;;;18.73;14.63;;;7.20;99.90;;;;;;10501608;28;20209;-77
2021/12/18 15:21:17;;;;;;;14.10;12.70;;;7.20;99.90;;;;;;10501541;28;20192;-78
2021/12/18 15:26:19;;;;;;;15.20;13.80;;;7.20;99.90;;;;;;10506491;28;20707;-79
2021/12/18 15:31:21;;;;;;;16.20;14.63;;;7.10;99.90;;;;;;10489803;28;20220;-78
2021/12/18 15:36:25;;;;;;;16.03;14.53;;;7.10;99.90;;;;;;10508342;28;20663;-77
2021/12/18 15:41:27;;;;;;;16.20;14.50;;;7.10;99.90;;;;;;10512881;28;20185;-77
2021/12/18 15:46:30;;;;;;;16.83;15.23;;;7.00;99.90;;;;;;10499051;28;20219;-77
2021/12/18 15:51:35;;;;;;;16.80;15.17;;;7.00;99.90;;;;;;10499746;28;20203;-77
2021/12/18 15:56:38;;;;;;;17.97;16.27;;;7.00;99.90;;;;;;10498276;28;20327;-77
2021/12/18 16:01:40;;;;;;;18.33;16.60;;;7.00;99.90;;;;;;10481888;28;20682;-78
2021/12/18 16:06:43;;;;;;;19.70;17.17;;;7.00;99.90;;;;;;10499325;28;20296;-78
2021/12/18 16:11:46;;;;;;;19.70;17.60;;;7.10;99.90;;;;;;10499625;28;20678;-76
2021/12/18 16:16:49;;;;;;;20.67;18.53;;;7.10;99.90;;;;;;10497709;28;20236;-78
2021/12/18 16:21:52;;;;;;;21.27;19.17;;;7.10;99.90;;;;;;10498106;28;20184;-78
2021/12/18 16:26:54;;;;;;;21.43;19.23;;;7.20;99.90;;;;;;10496969;28;20220;-77
2021/12/18 16:31:57;;;;;;;22.07;19.67;;;7.20;99.90;;;;;;10498313;28;20196;-78
2021/12/18 16:37:05;;;;;;;22.10;19.83;;;7.20;99.90;;;;;;10497642;28;20236;-78
2021/12/18 16:42:08;;;;;;;23.20;20.90;;;7.20;99.90;;;;;;10498340;28;20626;-77
2021/12/18 16:47:10;;;;;;;23.30;20.03;;;7.30;99.90;;;;;;10479733;28;20212;-78
2021/12/18 16:52:13;;;;;;;22.80;20.43;;;7.20;99.90;;;;;;10498089;28;20220;-78
2021/12/18 16:57:16;;;;;;;23.73;21.23;;;7.20;99.90;;;;;;10478793;28;20221;-78
2021/12/18 17:02:18;;;;;;;25.20;22.20;;;7.20;99.90;;;;;;10497743;28;20679;-78
2021/12/18 17:07:21;;;;;;;23.37;20.87;;;7.10;99.90;;;;;;10496284;28;20219;-79
2021/12/18 17:12:23;;;;;;;24.00;21.57;;;7.10;99.90;;;;;;10496485;28;20280;-78
2021/12/18 17:17:25;;;;;;;26.93;23.57;;;7.20;99.90;;;;;;10496613;28;20291;-77
2021/12/18 17:22:29;;;;;;;24.97;22.30;;;7.20;99.90;;;;;;10496636;28;20263;-78
2021/12/18 17:27:31;;;;;;;25.30;22.70;;;7.10;99.90;;;;;;10496173;28;20209;-77
2021/12/18 17:32:33;;;;;;;24.43;21.67;;;7.00;99.90;;;;;;10496858;28;20869;-77
2021/12/18 17:37:37;;;;;;;25.40;21.80;;;7.00;99.90;;;;;;10497252;28;20655;-78
2021/12/18 17:42:40;;;;;;;26.03;23.17;;;7.10;99.90;;;;;;10498589;28;20250;-79
2021/12/18 17:47:42;;;;;;;24.57;21.97;;;7.10;99.90;;;;;;10501137;28;20232;-79
2021/12/18 17:52:45;;;;;;;25.30;22.60;;;7.20;99.90;;;;;;10500942;28;20200;-79
2021/12/18 17:57:48;;;;;;;25.37;22.77;;;7.00;99.90;;;;;;10498992;28;20299;-78
2021/12/18 18:02:50;;;;;;;25.10;22.13;;;6.90;99.90;;;;;;10497635;28;20564;-78
2021/12/18 18:07:54;;;;;;;23.73;21.23;;;6.90;99.90;;;;;;10498004;28;20213;-78
2021/12/18 18:12:56;;;;;;;22.60;20.30;;;6.90;99.90;;;;;;10497695;28;20641;-77
2021/12/18 18:17:58;;;;;;;25.50;22.43;;;6.80;99.90;;;;;;10497863;28;20692;-78
2021/12/18 18:23:01;;;;;;;27.07;24.17;;;6.80;99.90;;;;;;10499543;28;20196;-78
2021/12/18 18:28:04;;;;;;;28.20;24.07;;;6.90;99.90;;;;;;10505206;28;20273;-78
2021/12/18 18:33:07;;;;;;;25.33;22.40;;;6.90;99.90;;;;;;10503895;28;20220;-78
2021/12/18 18:38:11;;;;;;;25.47;22.87;;;6.90;99.90;;;;;;10506603;28;20751;-79
2021/12/18 18:43:14;;;;;;;27.60;23.77;;;6.90;99.90;;;;;;10507654;28;20283;-79
2021/12/18 18:48:25;;;;;;;26.47;23.60;;;6.90;99.90;;;;;;10509409;28;20218;-78
2021/12/18 18:53:29;;;;;;;28.13;25.13;;;6.90;99.90;;;;;;10516389;28;20621;-79
2021/12/18 18:58:31;;;;;;;25.70;23.00;;;6.80;99.90;;;;;;10505183;28;20299;-78
2021/12/18 19:03:34;;;;;;;27.90;24.50;;;6.70;99.90;;;;;;10507609;28;20279;-79
2021/12/18 19:08:38;;;;;;;36.03;32.10;;;6.70;99.90;;;;;;10489533;28;20265;-79
2021/12/18 19:13:41;;;;;;;27.30;24.40;;;6.70;99.90;;;;;;10508802;28;20193;-79
2021/12/18 19:18:49;;;;;;;28.33;25.23;;;6.70;99.90;;;;;;10507599;28;20289;-79
2021/12/18 19:23:54;;;;;;;29.60;26.40;;;6.70;99.90;;;;;;10507187;28;20267;-79
2021/12/18 19:28:57;;;;;;;31.00;25.67;;;6.70;99.90;;;;;;10504783;28;20208;-79
2021/12/18 19:33:59;;;;;;;31.53;27.03;;;6.70;99.90;;;;;;10507027;28;20199;-79
2021/12/18 19:39:05;;;;;;;29.80;26.60;;;6.60;99.90;;;;;;10507039;28;20212;-80
2021/12/18 19:44:07;;;;;;;27.13;24.13;;;6.60;99.90;;;;;;10506150;28;20618;-78
2021/12/18 19:49:10;;;;;;;31.07;26.23;;;6.70;99.90;;;;;;10507036;28;20304;-79
2021/12/18 19:54:13;;;;;;;29.97;25.97;;;6.70;99.90;;;;;;10488951;28;20224;-79
2021/12/18 19:59:15;;;;;;;29.13;25.63;;;6.70;99.90;;;;;;10507358;28;20228;-80
2021/12/18 20:04:33;;;;;;;31.00;27.60;;;6.70;99.90;;;;;;10504490;28;20558;-78
2021/12/18 20:09:39;;;;;;;27.93;24.23;;;6.80;99.90;;;;;;10500108;28;20565;-76
2021/12/18 20:14:41;;;;;;;28.93;25.83;;;6.80;99.90;;;;;;10481457;28;20195;-77
2021/12/18 20:19:43;;;;;;;30.20;24.50;;;6.80;99.90;;;;;;10499533;28;20234;-78
2021/12/18 20:24:47;;;;;;;27.63;24.27;;;6.70;99.90;;;;;;10498242;28;20196;-78
2021/12/18 20:29:49;;;;;;;29.47;25.97;;;6.60;99.90;;;;;;10496724;28;20189;-77
2021/12/18 20:34:51;;;;;;;32.80;28.70;;;6.50;99.90;;;;;;10495214;28;20624;-77
2021/12/18 20:39:55;;;;;;;34.57;28.23;;;6.50;99.90;;;;;;10498383;28;20220;-76
2021/12/18 20:44:57;;;;;;;32.23;27.93;;;6.40;99.90;;;;;;10482409;28;20220;-77
2021/12/18 20:49:59;;;;;;;33.77;29.20;;;6.30;99.90;;;;;;10496897;28;20215;-78
2021/12/18 20:55:03;;;;;;;31.83;27.80;;;6.30;99.90;;;;;;10497089;28;20696;-77
2021/12/18 21:00:08;;;;;;;38.47;31.20;;;6.30;99.90;;;;;;10498148;28;20220;-78
2021/12/18 21:05:11;;;;;;;32.07;28.50;;;6.30;99.90;;;;;;10496139;28;20216;-77
2021/12/18 21:10:19;;;;;;;38.57;32.10;;;6.40;99.90;;;;;;10496637;28;20197;-77
2021/12/18 21:15:22;;;;;;;34.60;30.37;;;6.40;99.90;;;;;;10496733;28;20224;-77
2021/12/18 21:20:25;;;;;;;32.80;28.90;;;6.40;99.90;;;;;;10481006;28;20331;-77
2021/12/18 21:25:29;;;;;;;35.13;30.47;;;6.50;99.90;;;;;;10479787;28;20251;-77
2021/12/18 21:30:32;;;;;;;36.13;30.20;;;6.50;99.90;;;;;;10498555;28;20621;-77
2021/12/18 21:40:58;;;;;;;35.90;29.67;;;6.60;99.90;;;;;;10483311;28;20218;-78
2021/12/18 21:46:00;;;;;;;37.80;30.20;;;6.50;99.90;;;;;;10497239;28;20208;-77
2021/12/18 21:51:03;;;;;;;36.33;30.13;;;6.50;99.90;;;;;;10501180;28;20189;-79
2021/12/18 21:56:07;;;;;;;38.60;31.37;;;6.50;99.90;;;;;;10484303;28;20243;-78
2021/12/18 22:01:10;;;;;;;37.23;30.10;;;6.40;99.90;;;;;;10507710;28;20216;-78
2021/12/18 22:06:12;;;;;;;32.43;27.93;;;6.40;99.90;;;;;;10511429;28;20239;-79
2021/12/18 22:11:16;;;;;;;34.77;29.13;;;6.40;99.90;;;;;;10517106;28;20184;-79
2021/12/18 22:16:19;;;;;;;37.27;30.70;;;6.50;99.90;;;;;;10508081;28;20212;-79
2021/12/18 22:21:21;;;;;;;38.40;32.27;;;6.50;99.90;;;;;;10508351;28;20227;-79
2021/12/18 22:26:24;;;;;;;32.23;28.03;;;6.50;99.90;;;;;;10507838;28;20220;-79
2021/12/18 22:31:27;;;;;;;35.20;30.20;;;6.40;99.90;;;;;;10508920;28;20192;-78
2021/12/18 22:36:29;;;;;;;37.30;31.10;;;6.30;99.90;;;;;;10509000;28;20664;-78
2021/12/18 22:41:35;;;;;;;35.40;30.40;;;6.30;99.90;;;;;;10506901;28;20585;-79
2021/12/18 22:46:39;;;;;;;38.60;31.73;;;6.30;99.90;;;;;;10505698;28;20215;-79
2021/12/18 22:51:43;;;;;;;37.53;30.70;;;6.20;99.90;;;;;;10508280;28;20207;-79
2021/12/18 22:56:46;;;;;;;37.93;29.70;;;6.10;99.90;;;;;;10509382;28;20258;-79
2021/12/18 23:01:49;;;;;;;37.50;32.00;;;6.10;99.90;;;;;;10509585;28;20216;-79
2021/12/18 23:06:51;;;;;;;37.23;31.07;;;6.00;99.90;;;;;;10492073;28;20303;-79
2021/12/18 23:11:59;;;;;;;37.23;30.60;;;6.00;99.90;;;;;;10508770;28;20212;-79
2021/12/18 23:17:16;;;;;;;37.20;29.97;;;6.00;99.90;;;;;;10490659;28;20243;-79
2021/12/18 23:22:18;;;;;;;37.67;29.40;;;6.10;99.90;;;;;;10509580;28;20247;-79
2021/12/18 23:27:22;;;;;;;40.57;30.63;;;6.10;99.90;;;;;;10491077;28;20216;-80
2021/12/18 23:32:24;;;;;;;37.97;31.87;;;6.20;99.90;;;;;;10516157;28;20195;-79
2021/12/18 23:37:28;;;;;;;38.37;31.10;;;6.30;99.90;;;;;;10504915;28;20213;-79
2021/12/18 23:42:33;;;;;;;39.53;31.80;;;6.20;99.90;;;;;;10504265;28;20591;-79
2021/12/18 23:47:35;;;;;;;38.60;31.37;;;6.30;99.90;;;;;;10504351;28;20212;-78
2021/12/18 23:52:38;;;;;;;33.97;27.23;;;6.20;99.90;;;;;;10502321;28;20691;-78
2021/12/18 23:57:41;;;;;;;37.07;29.37;;;6.20;99.90;;;;;;10501555;28;20265;-77
